Карточка аэропорта USTR

Внимание!
Информация на этой странице в стадии наполнения.
Если вы не увидели какой-то информации, или заметили неточность - пожалуйста сообщите нам!
Спасибо!
Команда RU-STAFF
Название аэропортаРощино
Название аэропорта (англ.)Roshschino
Превышение378 ft. (115.2 m.)
Координаты57°10.098', 65°19.002'
Высота перехода3000ft
Эшелон переходаQNH⩾1013hPa:FL040; QNH⩾977hPa:FL050; QNH⩽977hPa:FL060
Коды ответчика5101-5137
Зона ОрВДТюмень РПИ (USTV)
Данные METARUSTR 250900Z 02002MPS 310V120 CAVOK 20/06 Q1006 R30/090065 R03/090065 NOSIG
Проноз погоды (TAF)USTR 250732Z 2509/2609 02005MPS 9999 BKN020CB TEMPO 2509/2515 05005G12MPS BECMG 2520/2521 06005G14MPS BKN016CB TEMPO 2521/2603 2100 -SHRA BR SCT004 BKN016CB FM260300 08006G14MPS 6000 -SHRA SCT005 BKN016CB TEMPO 2603/2609 10008G18MPS 1500 SHRA BR VV004
NOTAMshow/hide NOTAM
AWOS   TABLE

Информация о ВПП

ВПП Длина ВПП (м.) Покрытие Курс ВПП Частота ILS
122704Асфальтобетон121 
302704Асфальтобетон301 
033003Асфальтобетон34108.3
213003Асфальтобетон214110.7

Диспетчерские позиции

Позывной Наименование органа УВД Частота
USTR_TWRТюмень-Старт118.200
USTR_GNDТюмень-Руление119.000
USTR_R_APPТюмень-Круг126.100



Спутниковое изображение